Time;durP1;ratioP1;P1;durP2;ratioP2;P2;SDS_P1;SDS_P2;PMS_P1;PMS_P2;Temp;Humidity;BMP_temperature;BMP_pressure;BME280_temperature;BME280_humidity;BME280_pressure;Samples;Min_cycle;Max_cycle;Signal;HPM_P1;HPM_P2
2024/02/12 00:00:18;;;;;;;30.30;13.70;;;;;;;11.72;75.58;99824.44;5031611;28;20099;-45
2024/02/12 00:02:44;;;;;;;29.80;13.50;;;;;;;11.47;77.25;99835.94;5031385;28;20087;-47
2024/02/12 00:05:10;;;;;;;30.17;13.65;;;;;;;11.46;77.08;99845.56;5031775;28;20120;-45
2024/02/12 00:07:36;;;;;;;29.15;14.23;;;;;;;11.53;77.32;99836.78;5031648;28;20120;-48
2024/02/12 00:10:05;;;;;;;30.60;14.50;;;;;;;11.46;77.74;99850.78;5030833;28;20391;-46
2024/02/12 00:12:34;;;;;;;33.03;14.35;;;;;;;11.59;77.77;99857.63;5031681;28;20034;-47
2024/02/12 00:15:01;;;;;;;33.50;14.85;;;;;;;11.42;78.79;99861.22;5031296;28;20052;-47
2024/02/12 00:17:28;;;;;;;35.28;15.00;;;;;;;11.61;78.22;99871.53;5031566;28;20089;-45
2024/02/12 00:19:54;;;;;;;32.72;15.13;;;;;;;11.30;79.36;99864.75;5030436;28;20408;-44
2024/02/12 00:22:20;;;;;;;37.95;16.00;;;;;;;11.19;79.22;99872.66;5031235;28;20021;-48
2024/02/12 00:24:45;;;;;;;37.28;15.43;;;;;;;11.23;79.37;99883.94;5030894;28;20034;-49
2024/02/12 00:27:11;;;;;;;38.78;15.60;;;;;;;11.62;78.32;99877.63;5031176;28;20117;-47
2024/02/12 00:29:37;;;;;;;40.75;15.68;;;;;;;11.59;77.90;99878.50;5030779;28;20030;-45
2024/02/12 00:32:03;;;;;;;40.28;15.07;;;;;;;11.60;77.88;99877.63;5030567;28;20033;-44
2024/02/12 00:34:29;;;;;;;37.03;15.30;;;;;;;11.64;77.43;99886.31;5031095;28;20037;-46
2024/02/12 00:36:55;;;;;;;39.67;15.15;;;;;;;11.19;78.69;99875.25;5030749;28;20030;-48
2024/02/12 00:39:21;;;;;;;35.00;15.02;;;;;;;11.51;77.89;99869.88;5030866;28;20053;-46
2024/02/12 00:41:52;;;;;;;36.50;14.57;;;;;;;11.62;77.12;99875.88;5030386;28;20045;-45
2024/02/12 00:44:19;;;;;;;36.72;14.82;;;;;;;11.63;76.71;99882.84;5031126;28;20388;-47
2024/02/12 00:46:46;;;;;;;36.53;15.43;;;;;;;11.51;77.61;99889.88;5030412;28;20034;-46
2024/02/12 00:49:13;;;;;;;42.10;15.55;;;;;;;11.52;77.19;99883.78;5030634;28;20388;-44
2024/02/12 00:51:40;;;;;;;36.53;15.07;;;;;;;11.37;77.39;99888.22;5031025;28;20025;-46
2024/02/12 00:54:06;;;;;;;36.80;14.95;;;;;;;11.51;77.31;99900.31;5038497;28;20033;-45
2024/02/12 00:56:31;;;;;;;40.50;15.38;;;;;;;11.92;75.69;99892.22;5031038;28;20083;-50
2024/02/12 00:58:59;;;;;;;36.78;15.00;;;;;;;12.09;75.22;99898.19;5030220;28;20416;-45
2024/02/12 01:01:25;;;;;;;33.20;14.70;;;;;;;11.94;75.46;99898.31;5030903;28;20116;-43
2024/02/12 01:03:50;;;;;;;39.17;14.77;;;;;;;11.40;76.09;99906.44;5030156;28;20124;-49
2024/02/12 01:06:16;;;;;;;33.72;14.98;;;;;;;11.83;75.79;99908.84;5030577;28;20042;-45
2024/02/12 01:08:42;;;;;;;36.10;14.32;;;;;;;12.03;74.83;99912.16;5029697;28;20408;-46
2024/02/12 01:11:08;;;;;;;33.95;14.73;;;;;;;11.82;75.27;99908.84;5030523;28;20064;-47
2024/02/12 01:13:33;;;;;;;35.53;14.00;;;;;;;11.99;74.54;99907.84;5029102;28;20068;-46
2024/02/12 01:15:59;;;;;;;33.47;14.27;;;;;;;11.74;74.88;99915.00;5030230;28;20037;-47
2024/02/12 01:18:26;;;;;;;33.08;14.32;;;;;;;11.77;74.70;99911.50;5030149;28;20030;-42
2024/02/12 01:20:52;;;;;;;37.15;15.32;;;;;;;11.82;74.75;99917.56;5030038;28;20046;-45
2024/02/12 01:23:17;;;;;;;35.58;14.70;;;;;;;11.78;74.14;99906.25;5030396;28;20576;-46
2024/02/12 01:25:43;;;;;;;40.88;15.18;;;;;;;11.95;74.00;99903.53;5029723;28;20144;-44
2024/02/12 01:28:09;;;;;;;33.42;14.82;;;;;;;11.74;74.41;99912.38;5030151;28;20033;-47
2024/02/12 01:30:35;;;;;;;32.13;14.30;;;;;;;11.83;74.90;99916.69;5029725;28;20666;-50
2024/02/12 01:33:02;;;;;;;32.80;14.48;;;;;;;12.09;73.61;99916.47;5029324;28;20483;-48
2024/02/12 01:35:27;;;;;;;33.08;14.35;;;;;;;11.94;73.95;99916.59;5030455;28;20029;-46
2024/02/12 01:37:53;;;;;;;35.13;13.90;;;;;;;11.84;73.88;99918.41;5028567;28;20034;-51
2024/02/12 01:40:18;;;;;;;34.25;14.50;;;;;;;12.00;73.67;99927.00;5029744;28;20377;-47
2024/02/12 01:42:44;;;;;;;31.55;14.45;;;;;;;11.94;73.84;99927.91;5029679;28;20100;-52
2024/02/12 01:45:13;;;;;;;34.17;14.07;;;;;;;12.02;73.03;99917.41;5029760;28;20063;-49
2024/02/12 01:47:43;;;;;;;34.35;14.18;;;;;;;12.23;72.60;99924.19;5030088;28;20116;-50
2024/02/12 01:50:13;;;;;;;33.08;13.63;;;;;;;12.47;71.74;99932.69;5049119;28;20555;-47
2024/02/12 01:52:40;;;;;;;28.92;13.85;;;;;;;12.50;71.73;99926.59;5049788;28;20053;-49
2024/02/12 01:55:07;;;;;;;29.48;13.35;;;;;;;12.52;71.38;99928.28;5049346;28;20043;-45
2024/02/12 01:57:36;;;;;;;32.35;13.57;;;;;;;12.29;71.74;99924.16;5049728;28;20068;-47
2024/02/12 02:00:04;;;;;;;28.83;12.88;;;;;;;12.48;71.33;99923.09;5048836;28;20641;-48
2024/02/12 02:02:30;;;;;;;29.38;13.20;;;;;;;12.46;71.38;99933.56;5049451;28;20487;-46
2024/02/12 02:04:55;;;;;;;34.97;14.13;;;;;;;12.15;71.80;99934.72;5048951;28;20033;-47
2024/02/12 02:07:21;;;;;;;29.80;13.38;;;;;;;12.34;71.87;99930.19;5049325;28;20036;-46
2024/02/12 02:09:47;;;;;;;32.15;14.10;;;;;;;12.35;71.40;99924.97;5048846;28;20029;-46
2024/02/12 02:12:14;;;;;;;27.40;12.70;;;;;;;12.45;71.14;99926.59;5049477;28;20033;-44
2024/02/12 02:14:39;;;;;;;29.42;12.98;;;;;;;12.46;71.28;99919.63;5049239;28;20033;-45
2024/02/12 02:17:05;;;;;;;31.02;13.30;;;;;;;12.16;71.63;99942.53;5049728;28;20029;-46
2024/02/12 02:19:31;;;;;;;29.60;13.68;;;;;;;12.34;71.73;99941.53;5049231;28;20082;-47
2024/02/12 02:21:56;;;;;;;31.98;13.57;;;;;;;12.35;71.82;99948.50;5048769;28;20037;-47
2024/02/12 02:24:21;;;;;;;28.75;13.38;;;;;;;12.18;72.55;99953.88;5049613;28;20101;-47
2024/02/12 02:26:47;;;;;;;30.35;13.15;;;;;;;12.26;72.35;99958.16;5048824;28;20041;-51
2024/02/12 02:29:13;;;;;;;27.77;13.10;;;;;;;12.41;71.52;99963.25;5048837;28;20040;-46
2024/02/12 02:31:38;;;;;;;32.67;14.07;;;;;;;12.42;71.34;99958.03;5049277;28;20029;-45
2024/02/12 02:34:04;;;;;;;27.95;13.18;;;;;;;12.52;71.13;99959.66;5049034;28;20087;-44
2024/02/12 02:36:29;;;;;;;32.42;14.57;;;;;;;12.34;71.67;99957.19;5049498;28;20119;-44
2024/02/12 02:39:01;;;;;;;31.98;13.82;;;;;;;12.52;71.00;99964.03;5047147;28;20110;-46
2024/02/12 02:41:26;;;;;;;32.75;13.45;;;;;;;12.57;70.63;99965.72;5051412;22;20042;-50
2024/02/12 02:43:52;;;;;;;33.22;12.98;;;;;;;12.52;70.95;99970.13;5009362;28;20125;-49
2024/02/12 02:46:26;;;;;;;31.80;13.48;;;;;;;12.59;70.70;99968.31;5009823;28;20074;-50
2024/02/12 02:48:52;;;;;;;26.77;13.50;;;;;;;12.49;70.69;99972.78;5008830;28;20038;-53
2024/02/12 02:51:27;;;;;;;27.58;13.43;;;;;;;12.51;70.34;99972.72;5009520;28;20121;-49
2024/02/12 02:53:52;;;;;;;29.83;12.98;;;;;;;12.51;70.35;99970.13;5009429;28;20045;-48
2024/02/12 02:56:18;;;;;;;31.27;14.25;;;;;;;12.43;70.31;99967.59;5009355;28;20037;-51
2024/02/12 02:58:43;;;;;;;31.20;14.00;;;;;;;12.37;70.51;99964.16;5008457;28;20504;-52
2024/02/12 03:01:10;;;;;;;31.65;14.75;;;;;;;12.31;70.21;99964.22;5009234;28;20034;-49
2024/02/12 03:03:35;;;;;;;36.83;15.88;;;;;;;12.22;70.35;99974.72;5009198;28;20076;-49
2024/02/12 03:06:03;;;;;;;35.35;15.13;;;;;;;12.20;70.59;99974.72;5008862;28;20077;-47
2024/02/12 03:08:34;;;;;;;36.25;15.65;;;;;;;12.12;70.72;99979.16;5009006;28;20373;-52
2024/02/12 03:11:01;;;;;;;35.20;15.40;;;;;;;12.11;70.76;99970.47;5009233;28;20057;-49
2024/02/12 03:13:27;;;;;;;35.97;15.02;;;;;;;12.11;70.78;99980.03;5009899;28;20104;-49
2024/02/12 03:15:52;;;;;;;36.13;15.30;;;;;;;12.05;71.60;99985.31;5009059;28;20566;-52
2024/02/12 03:18:20;;;;;;;32.33;14.82;;;;;;;12.11;71.46;99980.91;5012382;28;20034;-49
2024/02/12 03:20:45;;;;;;;34.10;15.65;;;;;;;12.09;71.45;99977.44;5012542;28;20098;-49
2024/02/12 03:23:11;;;;;;;34.20;15.88;;;;;;;12.09;71.48;99985.28;5013761;28;20116;-49
2024/02/12 03:25:36;;;;;;;37.38;16.05;;;;;;;12.08;71.71;99980.03;5013568;28;20034;-49
2024/02/12 03:28:03;;;;;;;35.85;16.20;;;;;;;12.11;71.86;99975.69;5013833;28;20045;-49
2024/02/12 03:30:28;;;;;;;36.08;16.52;;;;;;;12.09;71.86;99979.16;5013403;28;20036;-51
2024/02/12 03:32:55;;;;;;;35.88;16.75;;;;;;;12.01;72.02;99975.78;5012611;28;20033;-49
2024/02/12 03:35:21;;;;;;;35.63;15.63;;;;;;;12.07;71.43;99986.19;5013295;28;20034;-47
2024/02/12 03:37:46;;;;;;;35.08;15.80;;;;;;;12.04;71.94;99986.19;5013017;28;20068;-49
2024/02/12 03:40:13;;;;;;;35.72;15.70;;;;;;;12.07;72.17;99992.28;5012904;28;20034;-50
2024/02/12 03:42:39;;;;;;;33.10;16.00;;;;;;;11.99;72.91;99994.06;5013033;28;20061;-49
2024/02/12 03:45:05;;;;;;;32.97;15.18;;;;;;;12.08;72.69;100000.94;4993275;28;20068;-52
2024/02/12 03:47:38;;;;;;;36.15;16.08;;;;;;;11.99;73.14;99998.41;4993078;28;20492;-49
2024/02/12 04:01:21;;;;;;;35.53;14.83;;;;;;;12.10;72.82;100007.03;5012271;28;20088;-50
2024/02/12 04:03:49;;;;;;;35.72;15.27;;;;;;;12.10;72.80;100013.13;5011826;28;20289;-53
2024/02/12 04:06:15;;;;;;;37.00;15.45;;;;;;;12.15;72.74;100016.59;5012345;28;20095;-50
2024/02/12 04:08:42;;;;;;;33.90;14.68;;;;;;;12.26;72.05;100024.34;5011318;28;20087;-47
2024/02/12 04:11:11;;;;;;;34.33;14.30;;;;;;;12.24;72.03;100028.72;5012423;28;20030;-48
2024/02/12 04:13:37;;;;;;;35.40;14.88;;;;;;;12.23;71.81;100024.38;5012479;28;20120;-49
2024/02/12 04:16:06;;;;;;;35.35;15.18;;;;;;;12.27;71.91;100026.06;5011872;28;20033;-53
2024/02/12 04:18:31;;;;;;;33.83;15.25;;;;;;;12.29;71.85;100029.56;5011707;28;20126;-51
2024/02/12 04:20:59;;;;;;;34.60;15.27;;;;;;;12.24;71.86;100025.25;5011611;28;20148;-53
2024/02/12 04:23:25;;;;;;;36.58;14.75;;;;;;;12.13;72.47;100027.94;5012329;28;20038;-50
2024/02/12 04:25:50;;;;;;;34.85;15.45;;;;;;;12.19;72.29;100030.50;5011452;28;20504;-49
2024/02/12 04:28:20;;;;;;;36.05;15.25;;;;;;;12.01;73.05;100033.25;5011792;28;20034;-50
2024/02/12 04:30:47;;;;;;;36.95;15.48;;;;;;;12.10;72.69;100046.22;5011319;28;20030;-48
2024/02/12 04:33:12;;;;;;;35.65;14.90;;;;;;;12.17;72.38;100047.94;5012316;28;20080;-52
2024/02/12 04:35:38;;;;;;;34.97;15.00;;;;;;;12.19;72.02;100049.66;5012191;28;20432;-47
2024/02/12 04:38:03;;;;;;;35.95;15.27;;;;;;;12.13;71.63;100051.44;5011277;28;20032;-50
2024/02/12 04:40:29;;;;;;;33.67;13.80;;;;;;;12.08;71.60;100045.38;5011543;28;20476;-49
2024/02/12 04:42:55;;;;;;;34.55;15.63;;;;;;;11.97;71.83;100052.41;5011019;28;20415;-51
2024/02/12 04:45:20;;;;;;;34.70;14.75;;;;;;;11.90;72.55;100058.53;5011792;28;20088;-48
2024/02/12 04:47:49;;;;;;;33.78;14.38;;;;;;;11.97;72.07;100061.09;5011061;28;20092;-53
2024/02/12 04:50:14;;;;;;;32.72;14.48;;;;;;;11.96;72.36;100075.03;5011349;28;20034;-50
2024/02/12 04:52:40;;;;;;;36.05;15.57;;;;;;;11.89;72.95;100067.25;5011404;28;20030;-51
2024/02/12 04:55:06;;;;;;;35.70;15.02;;;;;;;11.92;73.00;100070.72;5011687;28;20080;-53
2024/02/12 04:57:32;;;;;;;40.05;15.43;;;;;;;11.89;73.38;100078.56;5011391;28;20400;-51
2024/02/12 04:59:57;;;;;;;33.50;14.68;;;;;;;11.85;73.89;100071.63;5010413;28;20034;-52
2024/02/12 05:02:22;;;;;;;35.65;14.88;;;;;;;11.86;73.71;100069.88;5011097;28;20432;-49
2024/02/12 05:04:50;;;;;;;35.63;16.05;;;;;;;11.75;74.41;100073.41;4993292;28;20042;-49
2024/02/12 05:07:16;;;;;;;37.35;15.20;;;;;;;11.67;74.50;100085.59;5010976;28;20121;-48
2024/02/12 05:09:42;;;;;;;34.55;14.57;;;;;;;11.62;74.96;100082.13;5010230;28;20046;-52
2024/02/12 05:12:08;;;;;;;36.60;13.52;;;;;;;11.69;75.27;100091.69;5011106;28;20033;-53
2024/02/12 05:14:33;;;;;;;36.88;13.52;;;;;;;11.66;74.66;100093.41;5011347;28;20037;-51
2024/02/12 05:17:05;;;;;;;34.50;13.65;;;;;;;11.73;74.99;100084.69;5010797;28;20038;-51
2024/02/12 05:24:58;;;;;;;31.48;12.70;;;;;;;11.59;74.85;100100.41;5010739;28;20045;-49
2024/02/12 05:27:24;;;;;;;29.35;11.48;;;;;;;11.57;75.38;100098.69;5010956;28;20030;-52
2024/02/12 05:29:51;;;;;;;25.67;11.07;;;;;;;11.37;76.07;100096.13;5009987;28;20038;-49
2024/02/12 05:32:17;;;;;;;27.65;10.13;;;;;;;11.33;75.67;100094.41;5010791;28;20504;-49
2024/02/12 05:34:42;;;;;;;23.05;8.88;;;;;;;11.50;75.08;100097.81;5010756;28;20030;-52
2024/02/12 05:37:07;;;;;;;21.45;8.85;;;;;;;11.78;74.34;100096.88;4993395;28;20084;-49
2024/02/12 05:39:33;;;;;;;21.95;10.07;;;;;;;11.78;73.98;100093.41;5010430;28;20455;-52
2024/02/12 05:41:59;;;;;;;18.27;8.07;;;;;;;11.72;74.22;100096.88;5008999;28;20060;-49
2024/02/12 05:44:25;;;;;;;17.08;8.00;;;;;;;11.85;73.39;100102.94;5010910;28;20058;-49
2024/02/12 05:46:50;;;;;;;18.13;7.85;;;;;;;11.86;73.36;100107.31;5010151;28;20648;-51
2024/02/12 05:49:22;;;;;;;21.40;8.00;;;;;;;11.78;73.43;100099.50;5010343;28;20041;-49
2024/02/12 05:51:48;;;;;;;17.30;8.00;;;;;;;11.92;72.65;100101.19;5010703;28;20034;-48
2024/02/12 05:54:14;;;;;;;20.35;7.32;;;;;;;11.82;72.97;100100.38;5011568;28;20057;-50
2024/02/12 05:56:39;;;;;;;17.48;6.80;;;;;;;11.89;72.33;100104.69;5011426;28;20034;-49
2024/02/12 05:59:05;;;;;;;19.02;7.18;;;;;;;11.80;72.79;100099.50;5010711;28;20034;-49
2024/02/12 06:01:31;;;;;;;19.63;7.10;;;;;;;11.71;72.05;100112.56;5011356;28;20554;-47
2024/02/12 06:03:57;;;;;;;15.45;6.97;;;;;;;11.70;71.78;100105.59;5010322;28;20111;-47
2024/02/12 06:06:23;;;;;;;16.35;6.85;;;;;;;11.53;72.70;100120.41;5010544;28;20033;-50
2024/02/12 06:08:49;;;;;;;13.00;6.53;;;;;;;11.45;73.45;100107.41;5009712;28;20038;-49
2024/02/12 06:11:14;;;;;;;18.10;7.20;;;;;;;11.50;72.92;100113.50;5010889;28;20036;-49
2024/02/12 06:13:40;;;;;;;16.98;6.72;;;;;;;11.43;72.58;100114.38;5010641;28;20408;-50
2024/02/12 06:16:05;;;;;;;18.10;6.93;;;;;;;11.27;72.94;100110.94;5011017;28;20030;-47
2024/02/12 06:18:30;;;;;;;15.48;6.55;;;;;;;11.30;72.56;100123.09;5010459;28;20057;-49
2024/02/12 06:20:56;;;;;;;14.57;6.53;;;;;;;11.27;72.20;100126.59;5010227;28;20408;-50
2024/02/12 06:23:21;;;;;;;16.60;6.65;;;;;;;11.10;74.52;100132.69;5010321;28;20045;-51
2024/02/12 06:25:46;;;;;;;14.73;6.80;;;;;;;11.19;73.46;100136.16;5009855;28;20061;-48
2024/02/12 06:28:12;;;;;;;15.75;6.70;;;;;;;11.16;73.36;100133.53;5010261;28;20034;-48
2024/02/12 06:30:37;;;;;;;12.13;6.40;;;;;;;11.17;73.26;100144.84;5009923;28;20068;-47
2024/02/12 06:33:03;;;;;;;15.25;6.65;;;;;;;11.14;73.34;100142.25;5010182;28;20034;-51
2024/02/12 06:35:29;;;;;;;15.55;6.57;;;;;;;11.17;73.21;100139.63;4993420;28;20053;-50
2024/02/12 06:37:55;;;;;;;15.38;6.32;;;;;;;11.17;73.12;100145.72;5010219;28;20034;-49
2024/02/12 06:40:21;;;;;;;14.70;6.47;;;;;;;11.14;72.73;100148.34;5009690;28;20508;-48
2024/02/12 06:42:47;;;;;;;14.38;7.10;;;;;;;11.07;73.75;100156.16;5009181;28;20042;-51
2024/02/12 06:45:13;;;;;;;17.48;7.07;;;;;;;11.06;73.23;100150.06;5009799;28;20497;-47
2024/02/12 06:47:40;;;;;;;16.25;7.05;;;;;;;10.93;73.69;100159.63;5009369;28;20091;-50
2024/02/12 06:50:05;;;;;;;17.83;6.65;;;;;;;10.95;73.43;100159.63;5008996;28;20125;-51
2024/02/12 06:52:31;;;;;;;15.57;7.40;;;;;;;10.95;73.67;100163.13;5011115;28;20062;-48
2024/02/12 06:54:57;;;;;;;18.00;6.80;;;;;;;10.92;74.11;100167.44;5013154;28;20045;-47
2024/02/12 06:57:24;;;;;;;17.42;6.93;;;;;;;10.92;73.57;100173.53;5013603;28;20069;-53
2024/02/12 06:59:49;;;;;;;20.45;7.20;;;;;;;10.82;74.63;100171.78;5012523;28;20042;-53
2024/02/12 07:02:15;;;;;;;17.25;7.20;;;;;;;10.85;74.93;100179.63;5013282;28;20052;-49
2024/02/12 07:04:41;;;;;;;20.25;7.30;;;;;;;10.91;74.87;100182.25;5013103;28;20053;-48
2024/02/12 07:07:07;;;;;;;20.15;7.40;;;;;;;10.80;75.70;100191.78;5013384;28;20042;-50
2024/02/12 07:09:35;;;;;;;20.40;7.10;;;;;;;10.77;76.12;100191.78;5012712;28;20034;-49
2024/02/12 07:12:00;;;;;;;25.60;7.65;;;;;;;10.69;76.90;100190.88;5012462;28;20041;-50
2024/02/12 07:14:27;;;;;;;17.13;7.40;;;;;;;10.85;76.38;100192.69;5013253;28;20030;-50
2024/02/12 07:16:52;;;;;;;19.05;6.80;;;;;;;10.74;76.90;100199.59;5012816;28;20041;-48
2024/02/12 07:19:17;;;;;;;21.52;6.95;;;;;;;10.88;76.53;100194.41;5012694;28;20522;-49
2024/02/12 07:21:43;;;;;;;19.95;7.20;;;;;;;10.73;76.79;100207.44;5012427;28;20577;-52
2024/02/12 07:24:09;;;;;;;20.05;7.20;;;;;;;10.73;77.03;100204.81;5013159;28;20033;-48
2024/02/12 07:26:34;;;;;;;22.77;6.43;;;;;;;10.75;77.67;100216.97;5012970;28;20037;-49
2024/02/12 07:29:00;;;;;;;16.77;6.95;;;;;;;10.91;76.94;100220.50;5012185;28;20029;-48
2024/02/12 07:31:25;;;;;;;19.38;6.80;;;;;;;10.78;77.32;100216.13;5012934;28;20433;-49
2024/02/12 07:33:51;;;;;;;15.88;6.55;;;;;;;11.01;76.56;100219.63;5012644;28;20048;-51
2024/02/12 07:36:16;;;;;;;19.60;6.57;;;;;;;10.92;76.73;100224.81;5013131;28;20084;-49
2024/02/12 07:38:42;;;;;;;13.88;6.32;;;;;;;11.02;76.13;100230.94;5012021;28;20030;-52
2024/02/12 07:41:08;;;;;;;19.52;7.32;;;;;;;11.13;75.45;100240.50;5012759;28;20485;-48
2024/02/12 07:43:35;;;;;;;15.13;6.53;;;;;;;11.06;75.98;100241.38;5013072;28;20448;-48
2024/02/12 07:46:00;;;;;;;18.35;6.85;;;;;;;11.10;76.54;100244.88;5012916;28;20036;-48
2024/02/12 07:48:26;;;;;;;18.15;7.47;;;;;;;11.08;76.51;100244.84;5012756;28;20030;-53
2024/02/12 07:50:54;;;;;;;18.40;6.78;;;;;;;11.35;76.03;100250.09;5011851;28;20037;-52
2024/02/12 07:53:25;;;;;;;20.25;7.38;;;;;;;11.31;75.34;100253.56;5012441;28;20500;-54
2024/02/12 07:55:51;;;;;;;20.17;8.43;;;;;;;11.22;75.62;100256.16;5012125;28;20030;-52
2024/02/12 07:58:17;;;;;;;19.42;8.57;;;;;;;11.12;75.76;100262.25;5013185;28;20030;-52
2024/02/12 08:00:43;;;;;;;17.90;7.97;;;;;;;11.29;75.75;100275.31;5011763;28;20566;-48
2024/02/12 08:03:08;;;;;;;22.15;8.13;;;;;;;10.78;77.80;100273.47;5011603;28;20456;-51
2024/02/12 08:05:36;;;;;;;22.17;8.15;;;;;;;11.22;77.49;100269.19;5011806;28;20038;-47
2024/02/12 08:08:06;;;;;;;20.73;7.82;;;;;;;11.24;76.48;100277.91;5011620;28;20026;-49
2024/02/12 08:10:31;;;;;;;17.85;7.88;;;;;;;11.23;76.88;100280.50;5011614;28;20033;-52
2024/02/12 08:12:57;;;;;;;21.05;7.97;;;;;;;11.26;77.36;100280.53;5011567;28;20037;-50
2024/02/12 08:15:22;;;;;;;17.73;8.05;;;;;;;11.56;76.05;100287.50;5012289;28;20488;-49
2024/02/12 08:17:47;;;;;;;23.40;8.32;;;;;;;11.49;76.23;100294.47;5011769;28;20121;-48
2024/02/12 08:20:15;;;;;;;19.85;8.25;;;;;;;11.80;76.14;100300.59;5011517;28;20026;-48
2024/02/12 08:22:42;;;;;;;16.50;8.43;;;;;;;12.08;75.14;100301.41;5012804;28;20026;-50
2024/02/12 08:25:07;;;;;;;18.05;7.88;;;;;;;11.97;74.49;100298.81;5012781;28;20042;-53
2024/02/12 08:27:33;;;;;;;16.05;8.63;;;;;;;12.00;74.52;100306.66;5011937;28;20040;-49
2024/02/12 08:29:58;;;;;;;18.83;8.25;;;;;;;11.61;75.10;100310.13;5010924;28;20496;-49
2024/02/12 08:32:23;;;;;;;17.63;8.13;;;;;;;11.68;75.26;100311.00;5011803;28;20053;-53
2024/02/12 08:34:49;;;;;;;18.38;8.30;;;;;;;12.00;74.97;100301.44;5011335;28;20068;-51
2024/02/12 08:37:14;;;;;;;21.60;8.35;;;;;;;11.78;74.67;100308.41;5011590;28;20072;-48
2024/02/12 08:39:44;;;;;;;16.15;8.00;;;;;;;12.11;74.12;100312.75;5010549;28;20034;-49
2024/02/12 08:42:10;;;;;;;14.55;7.60;;;;;;;12.26;73.77;100321.44;5038227;22;20048;-80
2024/02/12 08:44:35;;;;;;;17.05;7.63;;;;;;;11.96;74.08;100324.94;5070761;28;20036;-80
2024/02/12 08:47:04;;;;;;;16.25;7.50;;;;;;;12.23;74.16;100327.53;5073424;28;20504;-81
2024/02/12 08:49:30;;;;;;;16.45;7.10;;;;;;;11.92;74.50;100326.69;5074446;28;20033;-80
2024/02/12 08:51:56;;;;;;;19.15;7.30;;;;;;;12.38;73.66;100329.25;5076592;28;20730;-79
2024/02/12 08:54:22;;;;;;;16.30;6.75;;;;;;;12.26;73.29;100330.13;5076237;22;20033;-48
2024/02/12 08:56:51;;;;;;;12.85;6.35;;;;;;;12.39;72.57;100334.44;5070238;28;20037;-45
2024/02/12 08:59:19;;;;;;;13.88;6.03;;;;;;;12.03;73.09;100337.13;5070622;28;20032;-45
2024/02/12 09:01:44;;;;;;;14.98;6.00;;;;;;;12.17;73.08;100345.81;5064569;28;20037;-45
2024/02/12 09:04:10;;;;;;;12.20;6.03;;;;;;;12.24;72.78;100354.53;5050832;28;20032;-45
2024/02/12 09:06:35;;;;;;;15.13;5.13;;;;;;;12.81;71.55;100351.72;5050376;28;20029;-46
2024/02/12 09:09:00;;;;;;;14.43;4.80;;;;;;;12.55;71.21;100357.06;5049866;28;20044;-45
2024/02/12 09:11:26;;;;;;;10.65;4.20;;;;;;;12.52;70.89;100356.19;5050760;28;20040;-47
2024/02/12 09:13:52;;;;;;;11.80;4.30;;;;;;;12.55;71.01;100375.38;5050391;28;20483;-45
2024/02/12 09:16:17;;;;;;;10.88;4.13;;;;;;;12.01;71.93;100370.25;5050645;28;20379;-46
2024/02/12 09:18:46;;;;;;;12.02;4.30;;;;;;;11.73;72.70;100383.28;5049724;28;20071;-49
2024/02/12 09:21:12;;;;;;;12.32;4.03;;;;;;;11.78;72.99;100383.28;5050622;28;20501;-47
2024/02/12 09:23:37;;;;;;;11.95;4.18;;;;;;;12.38;71.79;100378.91;5050438;28;20033;-46
2024/02/12 09:26:05;;;;;;;10.95;4.00;;;;;;;12.63;71.24;100385.78;5050050;28;20112;-50
2024/02/12 09:28:31;;;;;;;12.60;3.80;;;;;;;12.90;70.54;100383.09;5048956;28;20039;-44
2024/02/12 09:30:59;;;;;;;13.30;4.30;;;;;;;12.92;70.70;100383.09;5049849;28;20071;-47
2024/02/12 09:33:25;;;;;;;11.75;3.70;;;;;;;13.04;69.63;100393.53;5050564;28;20108;-46
2024/02/12 09:35:50;;;;;;;11.80;3.92;;;;;;;13.20;68.98;100394.34;5049924;28;20121;-46
2024/02/12 09:38:16;;;;;;;10.65;3.70;;;;;;;13.13;69.24;100396.13;5049945;28;20036;-48
2024/02/12 09:40:42;;;;;;;9.65;4.15;;;;;;;12.93;69.10;100397.91;5049425;28;20083;-47
2024/02/12 09:43:11;;;;;;;8.82;3.63;;;;;;;12.76;69.31;100399.72;5049999;28;20033;-45
2024/02/12 09:45:43;;;;;;;11.98;3.60;;;;;;;12.83;68.45;100398.81;5050020;28;20041;-48
2024/02/12 09:48:10;;;;;;;6.82;3.47;;;;;;;13.17;67.38;100402.22;5049836;28;20037;-45
2024/02/12 09:50:37;;;;;;;14.77;3.70;;;;;;;13.10;68.16;100405.72;5048693;28;20128;-50
2024/02/12 09:53:04;;;;;;;9.10;3.10;;;;;;;12.96;67.76;100414.47;5049297;28;20029;-46
2024/02/12 09:55:31;;;;;;;10.38;3.30;;;;;;;12.98;68.68;100419.72;5049698;28;20061;-49
2024/02/12 09:57:59;;;;;;;10.98;3.10;;;;;;;13.36;67.78;100420.44;5049156;28;20088;-49
2024/02/12 10:00:24;;;;;;;7.63;2.95;;;;;;;13.04;67.82;100422.31;5048270;28;20033;-46
2024/02/12 10:02:53;;;;;;;9.00;2.88;;;;;;;12.79;68.30;100431.97;5049034;28;20086;-49
2024/02/12 10:05:22;;;;;;;9.15;2.85;;;;;;;12.56;68.94;100432.00;5049884;28;20112;-46
2024/02/12 10:07:48;;;;;;;8.52;2.60;;;;;;;12.63;69.26;100443.31;5049203;28;20048;-45
2024/02/12 10:10:14;;;;;;;12.35;3.13;;;;;;;12.69;68.58;100443.31;5049287;28;20037;-47
2024/02/12 10:12:41;;;;;;;13.60;3.20;;;;;;;12.94;68.67;100441.50;5049205;28;20025;-48
2024/02/12 10:15:07;;;;;;;7.30;2.72;;;;;;;12.93;68.53;100456.34;5049859;28;20060;-45
2024/02/12 10:17:33;;;;;;;12.95;3.13;;;;;;;13.04;68.13;100456.31;5049786;28;20080;-48
2024/02/12 10:20:04;;;;;;;9.07;2.50;;;;;;;12.90;68.31;100456.38;5048719;28;20451;-46
2024/02/12 10:22:30;;;;;;;15.18;2.63;;;;;;;12.98;67.78;100461.56;5047870;28;20040;-45
2024/02/12 10:24:56;;;;;;;7.10;2.58;;;;;;;13.07;67.54;100463.28;5049136;28;20036;-45
2024/02/12 10:27:21;;;;;;;9.13;2.83;;;;;;;13.16;67.39;100468.53;5047455;28;20506;-45
2024/02/12 10:30:01;;;;;;;10.52;2.50;;;;;;;12.57;67.42;100474.72;5048233;28;20083;-46
2024/02/12 10:32:27;;;;;;;11.63;2.67;;;;;;;13.07;65.96;100479.84;5049475;28;20557;-46
2024/02/12 10:34:53;;;;;;;9.15;3.05;;;;;;;12.89;66.22;100479.91;5049030;28;20063;-46
2024/02/12 10:37:24;;;;;;;9.95;2.50;;;;;;;12.86;66.25;100486.03;5049294;28;20036;-47
2024/02/12 10:39:52;;;;;;;8.27;2.70;;;;;;;12.58;67.06;100485.19;5048574;28;20036;-44
2024/02/12 10:42:24;;;;;;;6.82;2.22;;;;;;;12.69;66.75;100493.00;5049185;28;20029;-48
2024/02/12 10:44:50;;;;;;;8.30;2.50;;;;;;;12.59;67.29;100494.78;5047485;28;20037;-46
2024/02/12 10:47:16;;;;;;;12.70;3.00;;;;;;;13.28;65.64;100494.66;5047741;28;20065;-45
2024/02/12 10:49:42;;;;;;;8.15;2.58;;;;;;;13.54;64.35;100495.41;5048475;28;20036;-45
2024/02/12 10:52:09;;;;;;;11.02;2.30;;;;;;;13.22;65.23;100502.53;5049169;28;20032;-49
2024/02/12 10:54:35;;;;;;;9.57;2.30;;;;;;;13.17;64.73;100499.06;5047810;28;20079;-49
2024/02/12 10:57:02;;;;;;;5.38;2.22;;;;;;;12.64;66.42;100512.19;5049196;28;20041;-48
2024/02/12 10:59:29;;;;;;;8.73;3.22;;;;;;;12.48;68.04;100508.72;5048806;28;20132;-48
2024/02/12 11:01:54;;;;;;;9.77;2.58;;;;;;;12.65;67.30;100509.59;5048463;28;20041;-46
2024/02/12 11:04:26;;;;;;;6.90;2.40;;;;;;;13.08;65.97;100507.78;5049318;28;20036;-46
2024/02/12 11:06:52;;;;;;;8.60;2.80;;;;;;;12.68;65.77;100511.34;5048906;28;20091;-46
2024/02/12 11:09:19;;;;;;;10.73;2.45;;;;;;;12.75;66.75;100508.69;5048831;28;20511;-46
2024/02/12 11:11:46;;;;;;;11.05;2.58;;;;;;;12.89;66.39;100514.78;5048873;28;20098;-47
2024/02/12 11:14:16;;;;;;;12.63;2.50;;;;;;;13.05;65.14;100514.78;5049439;28;20033;-45
2024/02/12 11:16:41;;;;;;;8.60;2.50;;;;;;;12.86;65.46;100516.56;5048892;28;20064;-45
2024/02/12 11:19:14;;;;;;;8.13;2.53;;;;;;;13.28;64.00;100510.38;5048723;28;20399;-46
2024/02/12 11:21:39;;;;;;;8.95;2.72;;;;;;;13.40;64.58;100515.56;5049091;28;20029;-46
2024/02/12 11:24:09;;;;;;;8.25;2.42;;;;;;;12.77;65.39;100521.78;5048821;28;20040;-46
2024/02/12 11:26:45;;;;;;;7.30;2.00;;;;;;;12.62;65.06;100520.06;5049545;28;20037;-44
2024/02/12 11:29:11;;;;;;;7.57;2.10;;;;;;;13.05;64.53;100512.16;5048139;28;20376;-47